createdAt,value
2022-10-21T00:01:24.447Z,13.02
2022-10-21T00:03:54.616Z,11.48
2022-10-21T00:06:25.132Z,11.70
2022-10-21T00:08:55.228Z,12.55
2022-10-21T00:11:25.938Z,13.27
2022-10-21T00:16:28.687Z,11.10
2022-10-21T00:18:58.955Z,11.15
2022-10-21T00:21:29.506Z,11.95
2022-10-21T00:23:59.575Z,12.20
2022-10-21T00:26:31.243Z,15.10
2022-10-21T00:29:02.754Z,15.65
2022-10-21T00:31:32.550Z,14.25
2022-10-21T00:34:05.073Z,12.00
2022-10-21T00:36:35.131Z,11.60
2022-10-21T00:39:07.775Z,12.77
2022-10-21T00:41:37.897Z,13.80
2022-10-21T00:44:12.385Z,15.45
2022-10-21T00:47:07.821Z,16.73
2022-10-21T00:49:51.059Z,15.50
2022-10-21T00:52:24.911Z,15.85
2022-10-21T00:54:58.146Z,11.65
2022-10-21T00:57:30.546Z,12.00
2022-10-21T01:00:03.940Z,11.77
2022-10-21T01:02:34.077Z,10.82
2022-10-21T01:05:06.067Z,14.88
2022-10-21T01:07:40.288Z,15.15
2022-10-21T01:10:11.815Z,13.73
2022-10-21T01:12:59.530Z,12.55
2022-10-21T01:15:35.401Z,13.25
2022-10-21T01:18:22.554Z,10.88
2022-10-21T01:21:12.263Z,11.10
2022-10-21T01:23:51.316Z,9.55
2022-10-21T01:26:55.504Z,9.45
2022-10-21T01:29:52.724Z,9.27
2022-10-21T01:32:38.580Z,8.48
2022-10-21T01:35:22.200Z,8.23
2022-10-21T01:38:18.306Z,8.23
2022-10-21T01:41:26.662Z,8.75
2022-10-21T01:44:20.418Z,7.82
2022-10-21T01:47:12.952Z,8.05
2022-10-21T01:49:50.821Z,8.57
2022-10-21T01:52:21.151Z,8.98
2022-10-21T01:55:00.162Z,9.07
2022-10-21T01:57:34.715Z,11.25
2022-10-21T02:00:08.050Z,9.52
2022-10-21T02:02:43.834Z,9.55
2022-10-21T02:05:24.098Z,9.48
2022-10-21T02:07:54.140Z,9.40
2022-10-21T02:10:27.658Z,10.27
2022-10-21T02:13:02.330Z,10.48
2022-10-21T02:15:35.041Z,9.32
2022-10-21T02:18:11.858Z,12.10
2022-10-21T02:20:44.769Z,10.80
2022-10-21T02:23:18.304Z,10.15
2022-10-21T02:25:50.752Z,9.23
2022-10-21T02:28:21.654Z,8.73
2022-10-21T02:31:05.010Z,8.07
2022-10-21T02:33:44.077Z,8.23
2022-10-21T02:36:20.133Z,8.45
2022-10-21T02:38:55.580Z,7.85
2022-10-21T02:41:28.878Z,9.30
2022-10-21T02:44:02.270Z,8.73
2022-10-21T02:46:42.203Z,9.00
2022-10-21T02:49:12.362Z,8.40
2022-10-21T02:51:44.536Z,9.38
2022-10-21T02:54:14.962Z,9.55
2022-10-21T02:56:45.509Z,8.60
2022-10-21T02:59:15.644Z,8.25
2022-10-21T03:01:46.184Z,8.80
2022-10-21T03:04:16.195Z,9.45
2022-10-21T03:06:46.777Z,8.68
2022-10-21T03:09:16.755Z,8.77
2022-10-21T03:11:46.558Z,9.27
2022-10-21T03:14:17.093Z,9.48
2022-10-21T03:16:47.174Z,8.48
2022-10-21T03:19:17.578Z,8.60
2022-10-21T03:21:47.577Z,9.20
2022-10-21T03:24:28.093Z,7.90
2022-10-21T03:26:59.072Z,8.25
2022-10-21T03:29:29.595Z,7.28
2022-10-21T03:31:59.687Z,7.70
2022-10-21T03:34:31.683Z,7.05
2022-10-21T03:37:01.732Z,5.72
2022-10-21T03:39:32.138Z,5.60
2022-10-21T03:42:02.229Z,7.07
2022-10-21T03:44:32.742Z,5.65
2022-10-21T03:47:02.811Z,5.95
2022-10-21T03:52:03.971Z,5.63
2022-10-21T03:54:34.149Z,6.75
2022-10-21T03:57:04.707Z,5.63
2022-10-21T03:59:34.703Z,6.35
2022-10-21T04:02:05.363Z,5.88
2022-10-21T04:04:36.517Z,5.43
2022-10-21T04:07:07.452Z,6.70
2022-10-21T04:09:38.118Z,6.30
2022-10-21T04:12:08.590Z,6.70
2022-10-21T04:14:38.656Z,5.63
2022-10-21T04:17:09.137Z,5.57
2022-10-21T04:19:39.254Z,6.20
2022-10-21T04:22:09.726Z,6.18
2022-10-21T04:24:39.847Z,5.35
2022-10-21T04:27:10.318Z,5.00
2022-10-21T04:29:40.417Z,5.65
2022-10-21T04:32:10.901Z,6.03
2022-10-21T04:37:10.225Z,5.97
2022-10-21T04:39:40.662Z,6.43
2022-10-21T04:42:10.702Z,6.90
2022-10-21T04:44:41.176Z,7.07
2022-10-21T04:47:11.288Z,6.03
2022-10-21T04:49:41.852Z,6.35
2022-10-21T04:52:12.201Z,6.22
2022-10-21T04:54:44.750Z,6.07
2022-10-21T04:57:15.873Z,6.22
2022-10-21T04:59:46.185Z,6.72
2022-10-21T05:04:45.424Z,5.82
2022-10-21T05:07:16.021Z,7.28
2022-10-21T05:09:45.988Z,6.22
2022-10-21T05:12:16.346Z,7.28
2022-10-21T05:17:15.459Z,5.90
2022-10-21T05:19:45.852Z,6.93
2022-10-21T05:22:15.636Z,7.55
2022-10-21T05:24:46.035Z,6.85
2022-10-21T05:27:15.999Z,7.35
2022-10-21T05:29:46.520Z,7.45
2022-10-21T05:32:16.482Z,6.88
2022-10-21T05:34:46.930Z,5.82
2022-10-21T05:37:16.692Z,6.20
2022-10-21T05:39:47.199Z,6.07
2022-10-21T05:42:17.314Z,5.93
2022-10-21T05:44:47.751Z,5.53
2022-10-21T05:47:17.856Z,5.75
2022-10-21T05:49:48.474Z,5.25
2022-10-21T05:52:18.413Z,5.13
2022-10-21T05:54:48.804Z,5.18
2022-10-21T05:57:18.785Z,5.72
2022-10-21T05:59:48.677Z,5.25
2022-10-21T06:02:19.150Z,4.95
2022-10-21T06:04:49.073Z,4.82
2022-10-21T06:07:19.478Z,5.82
2022-10-21T06:09:54.688Z,5.82
2022-10-21T06:12:25.586Z,5.20
2022-10-21T06:17:25.248Z,5.30
2022-10-21T06:19:55.570Z,5.25
2022-10-21T06:24:54.969Z,4.72
2022-10-21T06:27:25.276Z,4.72
2022-10-21T06:32:24.467Z,4.70
2022-10-21T06:34:55.494Z,5.28
2022-10-21T06:37:25.449Z,5.20
2022-10-21T06:39:55.824Z,5.70
2022-10-21T06:42:25.637Z,5.47
2022-10-21T06:44:57.947Z,5.93
2022-10-21T06:47:30.189Z,4.97
2022-10-21T06:50:05.229Z,5.80
2022-10-21T06:52:37.639Z,5.65
2022-10-21T06:55:08.833Z,5.93
2022-10-21T06:57:39.122Z,4.82
2022-10-21T07:00:10.432Z,5.75
2022-10-21T07:02:40.908Z,6.32
2022-10-21T07:05:13.567Z,5.78
2022-10-21T07:07:43.763Z,5.78
2022-10-21T07:10:16.325Z,5.85
2022-10-21T07:12:47.917Z,6.70
2022-10-21T07:15:18.340Z,6.43
2022-10-21T07:17:48.286Z,6.38
2022-10-21T07:20:18.713Z,6.25
2022-10-21T07:22:48.621Z,6.25
2022-10-21T07:25:19.121Z,6.82
2022-10-21T07:27:50.786Z,6.45
2022-10-21T07:30:21.235Z,6.40
2022-10-21T07:32:52.101Z,6.13
2022-10-21T07:35:22.475Z,6.20
2022-10-21T07:37:52.478Z,5.95
2022-10-21T07:40:23.116Z,6.25
2022-10-21T07:42:53.173Z,6.45
2022-10-21T07:45:23.730Z,6.30
2022-10-21T07:47:53.735Z,6.07
2022-10-21T07:50:24.124Z,6.63
2022-10-21T07:53:01.312Z,7.50
2022-10-21T07:55:39.104Z,5.57
2022-10-21T08:00:39.299Z,6.07
2022-10-21T08:03:09.722Z,5.55
2022-10-21T08:05:42.424Z,4.85
2022-10-21T08:08:12.810Z,5.35
2022-10-21T08:10:43.532Z,5.60
2022-10-21T08:13:13.975Z,4.70
2022-10-21T08:15:48.382Z,3.72
2022-10-21T08:18:19.653Z,4.88
2022-10-21T08:20:51.135Z,4.30
2022-10-21T08:23:23.476Z,4.40
2022-10-21T08:25:59.152Z,4.40
2022-10-21T08:28:31.505Z,3.85
2022-10-21T08:31:21.917Z,4.15
2022-10-21T08:33:52.479Z,3.70
2022-10-21T08:36:26.260Z,3.80
2022-10-21T08:39:00.115Z,3.53
2022-10-21T08:41:33.096Z,3.58
2022-10-21T08:44:03.520Z,3.15
2022-10-21T08:46:53.254Z,3.95
2022-10-21T08:49:32.090Z,3.60
2022-10-21T08:52:27.591Z,4.30
2022-10-21T08:55:01.947Z,3.80
2022-10-21T08:57:36.270Z,3.58
2022-10-21T09:00:24.341Z,3.20
2022-10-21T09:03:14.562Z,3.80
2022-10-21T09:06:02.669Z,3.97
2022-10-21T09:08:45.132Z,2.95
2022-10-21T09:11:35.554Z,2.70
2022-10-21T09:14:11.137Z,3.33
2022-10-21T09:17:08.407Z,4.47
2022-10-21T09:19:54.887Z,5.93
2022-10-21T09:22:50.333Z,5.05
2022-10-21T09:25:36.641Z,3.70
2022-10-21T09:28:17.517Z,5.68
2022-10-21T09:30:48.284Z,3.83
2022-10-21T09:33:30.109Z,5.10
2022-10-21T09:36:14.479Z,4.72
2022-10-21T09:38:47.239Z,5.38
2022-10-21T09:41:24.405Z,5.13
2022-10-21T09:43:57.223Z,5.30
2022-10-21T09:46:27.373Z,4.90
2022-10-21T09:49:41.997Z,4.18
2022-10-21T09:51:53.427Z,5.05
2022-10-21T09:54:27.021Z,4.00
2022-10-21T09:57:15.757Z,3.20
2022-10-21T09:59:54.593Z,3.17
2022-10-21T10:02:34.996Z,2.50
2022-10-21T10:05:45.060Z,2.70
2022-10-21T10:08:26.458Z,2.88
2022-10-21T10:11:18.772Z,2.95
2022-10-21T10:13:54.056Z,2.72
2022-10-21T10:16:30.068Z,2.30
2022-10-21T10:19:18.581Z,1.70
2022-10-21T10:22:10.310Z,1.70
2022-10-21T10:24:41.903Z,2.03
2022-10-21T10:27:22.048Z,1.40
2022-10-21T10:29:57.865Z,1.27
2022-10-21T10:32:33.403Z,1.50
2022-10-21T10:35:07.602Z,1.50
2022-10-21T10:37:39.525Z,1.38
2022-10-21T10:40:10.982Z,1.42
2022-10-21T10:42:47.066Z,1.10
2022-10-21T10:45:21.501Z,1.52
2022-10-21T10:48:00.896Z,0.93
2022-10-21T10:50:40.015Z,0.65
2022-10-21T10:53:31.199Z,1.00
2022-10-21T10:56:30.004Z,0.60
2022-10-21T10:59:36.902Z,1.08
2022-10-21T11:02:11.114Z,0.95
2022-10-21T11:04:43.580Z,0.90
2022-10-21T11:07:17.339Z,1.02
2022-10-21T11:09:54.307Z,1.02
2022-10-21T11:12:28.218Z,0.75
2022-10-21T11:15:00.666Z,1.08
2022-10-21T11:17:42.422Z,0.80
2022-10-21T11:20:30.080Z,0.82
2022-10-21T11:23:36.131Z,0.88
2022-10-21T11:26:29.287Z,0.90
2022-10-21T11:29:25.535Z,1.45
2022-10-21T11:32:32.241Z,1.33
2022-10-21T11:35:25.952Z,1.35
2022-10-21T11:38:17.298Z,1.15
2022-10-21T11:41:27.190Z,1.27
2022-10-21T11:44:04.790Z,1.52
2022-10-21T11:47:31.523Z,1.08
2022-10-21T11:50:42.687Z,1.52
2022-10-21T11:53:16.829Z,1.15
2022-10-21T11:56:09.413Z,1.05
2022-10-21T11:58:57.507Z,1.20
2022-10-21T12:01:47.942Z,1.40
2022-10-21T12:04:21.672Z,1.30
2022-10-21T12:07:11.335Z,1.08
2022-10-21T12:09:45.714Z,0.80
2022-10-21T12:12:20.806Z,1.27
2022-10-21T12:14:51.376Z,1.40
2022-10-21T12:17:23.616Z,1.20
2022-10-21T12:20:08.270Z,1.40
2022-10-21T12:22:40.162Z,1.23
2022-10-21T12:25:29.181Z,1.00
2022-10-21T12:28:28.434Z,0.98
2022-10-21T12:31:25.500Z,0.95
2022-10-21T12:33:56.343Z,1.27
2022-10-21T12:36:26.904Z,1.40
2022-10-21T12:38:59.008Z,1.23
2022-10-21T12:41:35.312Z,1.17
2022-10-21T12:44:09.035Z,1.30
2022-10-21T12:46:42.901Z,0.98
2022-10-21T12:49:18.868Z,1.30
2022-10-21T12:51:57.091Z,1.08
2022-10-21T12:54:39.267Z,1.17
2022-10-21T12:57:13.098Z,0.90
2022-10-21T12:59:44.777Z,1.60
2022-10-21T13:02:29.344Z,1.40
2022-10-21T13:05:00.095Z,1.48
2022-10-21T13:07:33.360Z,1.10
2022-10-21T13:10:03.660Z,1.05
2022-10-21T13:12:35.167Z,1.30
2022-10-21T13:15:25.571Z,0.90
2022-10-21T13:17:59.336Z,0.70
2022-10-21T13:20:35.167Z,0.90
2022-10-21T13:23:32.811Z,1.02
2022-10-21T13:26:13.912Z,1.20
2022-10-21T13:28:56.904Z,1.10
2022-10-21T13:31:27.412Z,1.05
2022-10-21T13:33:58.111Z,1.20
2022-10-21T13:36:42.161Z,1.23
2022-10-21T13:39:24.295Z,1.00
2022-10-21T13:42:06.687Z,1.77
2022-10-21T13:44:42.773Z,1.27
2022-10-21T13:50:29.635Z,1.00
2022-10-21T13:53:02.720Z,1.17
2022-10-21T13:55:33.562Z,1.40
2022-10-21T13:58:04.036Z,1.33
2022-10-21T14:00:34.721Z,1.10
2022-10-21T14:03:07.201Z,1.10
2022-10-21T14:05:47.567Z,1.00
2022-10-21T14:08:29.120Z,1.00
2022-10-21T14:11:06.551Z,1.00
2022-10-21T14:13:38.990Z,1.20
2022-10-21T14:16:10.967Z,1.30
2022-10-21T14:18:49.126Z,1.30
2022-10-21T14:21:27.580Z,1.35
2022-10-21T14:23:59.416Z,1.10
2022-10-21T14:26:33.850Z,1.08
2022-10-21T14:29:05.282Z,1.10
2022-10-21T14:31:35.679Z,1.60
2022-10-21T14:34:08.377Z,1.58
2022-10-21T14:37:10.932Z,1.42
2022-10-21T14:39:42.558Z,1.50
2022-10-21T14:42:21.701Z,1.58
2022-10-21T14:44:56.038Z,1.13
2022-10-21T14:47:28.184Z,1.42
2022-10-21T14:50:02.119Z,1.00
2022-10-21T14:52:40.191Z,1.50
2022-10-21T14:55:16.213Z,1.38
2022-10-21T14:57:54.480Z,1.20
2022-10-21T15:00:44.198Z,1.15
2022-10-21T15:03:15.350Z,1.67
2022-10-21T15:05:49.352Z,1.25
2022-10-21T15:08:22.585Z,1.17
2022-10-21T15:10:58.999Z,1.20
2022-10-21T15:13:29.546Z,1.00
2022-10-21T15:16:01.453Z,1.05
2022-10-21T15:18:41.886Z,1.25
2022-10-21T15:21:16.603Z,0.90
2022-10-21T15:23:58.850Z,0.98
2022-10-21T15:26:36.852Z,1.30
2022-10-21T15:29:20.651Z,1.00
2022-10-21T15:31:51.034Z,1.02
2022-10-21T15:34:21.635Z,0.98
2022-10-21T15:36:52.150Z,0.90
2022-10-21T15:39:22.166Z,0.90
2022-10-21T15:41:57.509Z,1.80
2022-10-21T15:44:32.717Z,1.08
2022-10-21T15:47:06.645Z,1.10
2022-10-21T15:49:42.279Z,1.08
2022-10-21T15:52:13.146Z,1.52
2022-10-21T15:54:43.950Z,1.42
2022-10-21T15:57:22.721Z,0.90
2022-10-21T15:59:52.756Z,1.10
2022-10-21T16:02:23.129Z,1.35
2022-10-21T16:04:54.634Z,1.42
2022-10-21T16:07:37.088Z,1.40
2022-10-21T16:10:30.678Z,1.10
2022-10-21T16:13:01.289Z,1.23
2022-10-21T16:15:31.796Z,0.90
2022-10-21T16:18:02.229Z,1.30
2022-10-21T16:20:34.663Z,1.10
2022-10-21T16:23:05.771Z,1.05
2022-10-21T16:25:36.209Z,1.30
2022-10-21T16:28:20.630Z,1.25
2022-10-21T16:30:54.690Z,0.98
2022-10-21T16:33:25.039Z,1.30
2022-10-21T16:35:55.314Z,1.40
2022-10-21T16:38:25.661Z,1.15
2022-10-21T16:40:55.890Z,1.40
2022-10-21T16:43:26.329Z,1.00
2022-10-21T16:45:56.541Z,1.02
2022-10-21T16:48:29.774Z,1.17
2022-10-21T16:51:00.008Z,1.30
2022-10-21T16:53:30.325Z,1.23
2022-10-21T16:56:00.664Z,1.20
2022-10-21T16:58:31.438Z,1.42
2022-10-21T17:01:02.969Z,1.40
2022-10-21T17:03:35.601Z,1.17
2022-10-21T17:06:05.999Z,1.13
2022-10-21T17:08:36.371Z,1.20
2022-10-21T17:11:09.020Z,1.05
2022-10-21T17:13:39.328Z,1.42
2022-10-21T17:16:09.927Z,1.17
2022-10-21T17:18:41.450Z,1.40
2022-10-21T17:21:26.127Z,1.25
2022-10-21T17:23:57.833Z,1.10
2022-10-21T17:26:31.587Z,1.33
2022-10-21T17:29:05.067Z,1.30
2022-10-21T17:31:36.109Z,1.60
2022-10-21T17:34:08.643Z,1.00
2022-10-21T17:36:39.477Z,1.40
2022-10-21T17:39:09.825Z,1.10
2022-10-21T17:41:39.738Z,1.10
2022-10-21T17:44:13.248Z,1.23
2022-10-21T17:46:43.849Z,1.13
2022-10-21T17:49:16.195Z,1.38
2022-10-21T17:51:50.630Z,1.38
2022-10-21T17:54:25.952Z,1.40
2022-10-21T17:57:00.237Z,1.40
2022-10-21T17:59:33.799Z,1.25
2022-10-21T18:02:04.362Z,1.80
2022-10-21T18:04:35.409Z,1.60
2022-10-21T18:07:09.341Z,1.10
2022-10-21T18:09:41.084Z,1.27
2022-10-21T18:12:15.058Z,1.27
2022-10-21T18:14:45.749Z,1.40
2022-10-21T18:17:17.155Z,1.00
2022-10-21T18:19:48.428Z,1.10
2022-10-21T18:22:18.660Z,1.20
2022-10-21T18:24:49.027Z,1.60
2022-10-21T18:27:19.421Z,1.38
2022-10-21T18:29:50.325Z,1.10
2022-10-21T18:32:20.525Z,1.30
2022-10-21T18:34:52.078Z,1.20
2022-10-21T18:37:22.703Z,1.55
2022-10-21T18:39:56.668Z,2.30
2022-10-21T18:42:29.884Z,1.70
2022-10-21T18:45:00.226Z,1.83
2022-10-21T18:47:30.530Z,1.90
2022-10-21T18:50:00.975Z,1.98
2022-10-21T18:52:31.200Z,2.05
2022-10-21T18:55:03.152Z,2.00
2022-10-21T18:57:33.453Z,1.50
2022-10-21T19:00:03.853Z,1.88
2022-10-21T19:02:34.464Z,1.88
2022-10-21T19:05:06.121Z,1.88
2022-10-21T19:07:36.415Z,1.80
2022-10-21T19:10:07.431Z,2.15
2022-10-21T19:12:37.761Z,1.90
2022-10-21T19:15:12.167Z,1.80
2022-10-21T19:17:43.028Z,1.45
2022-10-21T19:20:14.817Z,3.25
2022-10-21T19:22:45.068Z,2.38
2022-10-21T19:25:15.968Z,1.52
2022-10-21T19:27:49.214Z,1.10
2022-10-21T19:30:19.869Z,1.00
2022-10-21T19:32:50.067Z,1.10
2022-10-21T19:35:20.930Z,0.98
2022-10-21T19:37:51.409Z,0.80
2022-10-21T19:40:22.332Z,1.67
2022-10-21T19:42:52.675Z,1.08
2022-10-21T19:45:26.054Z,1.75
2022-10-21T19:47:56.259Z,1.67
2022-10-21T19:50:26.804Z,1.58
2022-10-21T19:52:57.192Z,0.77
2022-10-21T19:55:28.065Z,0.80
2022-10-21T19:57:58.984Z,0.80
2022-10-21T20:00:32.675Z,1.30
2022-10-21T20:03:03.611Z,1.30
2022-10-21T20:05:38.043Z,2.67
2022-10-21T20:08:09.346Z,1.50
2022-10-21T20:10:39.966Z,1.45
2022-10-21T20:13:12.678Z,1.38
2022-10-21T20:15:49.454Z,1.33
2022-10-21T20:18:22.294Z,0.88
2022-10-21T20:20:56.303Z,1.10
2022-10-21T20:23:27.623Z,1.20
2022-10-21T20:26:00.743Z,1.17
2022-10-21T20:28:31.796Z,1.02
2022-10-21T20:31:28.709Z,1.65
2022-10-21T20:33:59.389Z,1.25
2022-10-21T20:36:33.524Z,1.17
2022-10-21T20:39:04.722Z,1.10
2022-10-21T20:41:38.520Z,1.13
2022-10-21T20:44:12.777Z,1.30
2022-10-21T20:46:43.824Z,1.00
2022-10-21T20:49:14.794Z,1.40
2022-10-21T20:51:47.337Z,0.90
2022-10-21T20:54:19.795Z,1.42
2022-10-21T20:56:51.185Z,1.40
2022-10-21T20:59:21.474Z,2.00
2022-10-21T21:01:52.203Z,1.77
2022-10-21T21:04:24.784Z,1.13
2022-10-21T21:06:55.949Z,2.38
2022-10-21T21:09:50.047Z,2.10
2022-10-21T21:12:17.730Z,1.92
2022-10-21T21:14:48.986Z,3.58
2022-10-21T21:17:19.783Z,1.92
2022-10-21T21:19:50.108Z,1.27
2022-10-21T21:22:24.984Z,1.08
2022-10-21T21:24:55.167Z,0.90
2022-10-21T21:27:29.487Z,1.17
2022-10-21T21:30:00.728Z,1.00
2022-10-21T21:32:31.125Z,0.77
2022-10-21T21:35:05.035Z,1.20
2022-10-21T21:37:46.488Z,1.42
2022-10-21T21:40:19.327Z,1.48
2022-10-21T21:42:49.716Z,1.60
2022-10-21T21:45:19.905Z,1.70
2022-10-21T21:47:50.227Z,0.70
2022-10-21T21:50:23.843Z,1.00
2022-10-21T21:52:54.194Z,1.50
2022-10-21T21:55:24.980Z,1.33
2022-10-21T21:57:55.293Z,1.00
2022-10-21T22:00:25.730Z,1.05
2022-10-21T22:02:56.118Z,1.55
2022-10-21T22:05:27.202Z,1.58
2022-10-21T22:07:57.635Z,1.00
2022-10-21T22:10:28.424Z,1.48
2022-10-21T22:12:58.766Z,1.10
2022-10-21T22:15:46.955Z,1.10
2022-10-21T22:18:19.227Z,1.67
2022-10-21T22:20:49.454Z,1.80
2022-10-21T22:23:21.611Z,1.77
2022-10-21T22:25:51.929Z,1.00
2022-10-21T22:28:22.779Z,1.40
2022-10-21T22:31:01.933Z,1.67
2022-10-21T22:33:35.343Z,1.35
2022-10-21T22:36:06.714Z,1.40
2022-10-21T22:38:37.575Z,1.15
2022-10-21T22:41:12.299Z,1.20
2022-10-21T22:43:44.006Z,1.05
2022-10-21T22:46:33.835Z,1.00
2022-10-21T22:49:06.478Z,1.27
2022-10-21T22:51:36.766Z,0.95
2022-10-21T22:54:29.595Z,1.25
2022-10-21T22:57:01.770Z,1.17
2022-10-21T22:59:32.566Z,1.15
2022-10-21T23:02:02.758Z,1.25
2022-10-21T23:04:33.498Z,1.70
2022-10-21T23:07:04.286Z,1.73
2022-10-21T23:09:34.890Z,1.25
2022-10-21T23:14:35.002Z,1.75
2022-10-21T23:17:05.743Z,1.55
2022-10-21T23:19:36.008Z,1.30
2022-10-21T23:22:07.368Z,1.77
2022-10-21T23:24:37.754Z,1.75
2022-10-21T23:27:08.372Z,1.50
2022-10-21T23:29:40.094Z,2.40
2022-10-21T23:32:11.470Z,3.40
2022-10-21T23:34:41.908Z,2.70
2022-10-21T23:37:12.642Z,2.67
2022-10-21T23:39:43.040Z,3.20
2022-10-21T23:42:13.986Z,2.35
2022-10-21T23:44:44.458Z,2.60
2022-10-21T23:47:15.131Z,2.58
2022-10-21T23:49:45.400Z,1.38
2022-10-21T23:52:16.080Z,1.73
2022-10-21T23:54:46.436Z,1.58
2022-10-21T23:57:18.171Z,1.98
2022-10-21T23:59:48.350Z,1.88
